createdAt,value
2019-01-10T00:01:31.285Z,3.10
2019-01-10T00:04:00.212Z,3.00
2019-01-10T00:06:28.998Z,3.10
2019-01-10T00:08:57.887Z,3.10
2019-01-10T00:11:26.892Z,3.00
2019-01-10T00:13:55.766Z,3.10
2019-01-10T00:16:24.575Z,3.00
2019-01-10T00:18:53.597Z,3.00
2019-01-10T00:21:22.465Z,3.00
2019-01-10T00:23:51.467Z,2.90
2019-01-10T00:26:20.650Z,2.80
2019-01-10T00:28:49.559Z,2.80
2019-01-10T00:31:18.337Z,2.80
2019-01-10T00:33:47.420Z,2.80
2019-01-10T00:36:16.298Z,2.70
2019-01-10T00:38:45.087Z,2.70
2019-01-10T00:41:14.182Z,2.60
2019-01-10T00:43:43.030Z,2.70
2019-01-10T00:46:11.959Z,2.70
2019-01-10T00:48:40.957Z,2.70
2019-01-10T00:51:09.756Z,2.60
2019-01-10T00:53:39.381Z,2.70
2019-01-10T00:56:08.649Z,2.60
2019-01-10T00:58:37.486Z,2.60
2019-01-10T01:01:06.449Z,2.60
2019-01-10T01:03:35.448Z,2.60
2019-01-10T01:06:06.843Z,2.50
2019-01-10T01:08:35.649Z,2.40
2019-01-10T01:11:05.033Z,2.30
2019-01-10T01:13:33.910Z,2.30
2019-01-10T01:16:02.745Z,2.20
2019-01-10T01:18:31.796Z,2.20
2019-01-10T01:21:00.609Z,2.20
2019-01-10T01:23:29.508Z,2.20
2019-01-10T01:25:58.375Z,2.20
2019-01-10T01:28:27.367Z,2.20
2019-01-10T01:30:56.244Z,2.10
2019-01-10T01:33:25.211Z,2.00
2019-01-10T01:35:54.016Z,2.00
2019-01-10T01:38:22.892Z,2.00
2019-01-10T01:40:51.798Z,2.00
2019-01-10T01:43:20.613Z,1.90
2019-01-10T01:45:49.509Z,1.90
2019-01-10T01:48:18.575Z,1.90
2019-01-10T01:50:47.460Z,1.90
2019-01-10T01:53:16.359Z,1.90
2019-01-10T01:55:45.389Z,1.90
2019-01-10T01:58:14.295Z,1.90
2019-01-10T02:00:43.191Z,1.80
2019-01-10T02:03:12.286Z,1.80
2019-01-10T02:05:41.223Z,1.80
2019-01-10T02:08:10.029Z,1.80
2019-01-10T02:10:39.162Z,1.80
2019-01-10T02:13:16.330Z,1.80
2019-01-10T02:15:38.971Z,1.80
2019-01-10T02:18:07.875Z,1.80
2019-01-10T02:20:36.660Z,1.80
2019-01-10T02:23:05.634Z,1.80
2019-01-10T02:25:34.513Z,1.80
2019-01-10T02:28:03.475Z,1.80
2019-01-10T02:30:41.619Z,1.80
2019-01-10T02:33:03.194Z,1.80
2019-01-10T02:35:32.000Z,1.80
2019-01-10T02:38:00.873Z,1.80
2019-01-10T02:40:29.791Z,1.80
2019-01-10T02:42:58.689Z,1.80
2019-01-10T02:45:27.511Z,1.80
2019-01-10T02:47:56.557Z,1.80
2019-01-10T02:50:25.475Z,1.80
2019-01-10T02:52:54.344Z,1.90
2019-01-10T02:55:23.320Z,1.90
2019-01-10T02:57:53.677Z,1.90
2019-01-10T03:00:24.114Z,1.90
2019-01-10T03:02:53.327Z,1.90
2019-01-10T03:05:22.516Z,1.90
2019-01-10T03:07:51.903Z,1.90
2019-01-10T03:10:23.666Z,1.90
2019-01-10T03:12:52.554Z,1.90
2019-01-10T03:15:21.617Z,1.90
2019-01-10T03:17:50.709Z,1.90
2019-01-10T03:20:21.017Z,2.00
2019-01-10T03:22:50.061Z,2.10
2019-01-10T03:25:19.019Z,2.00
2019-01-10T03:27:47.972Z,2.00
2019-01-10T03:30:18.749Z,2.00
2019-01-10T03:32:47.802Z,2.00
2019-01-10T03:35:16.748Z,2.00
2019-01-10T03:37:45.889Z,2.00
2019-01-10T03:40:17.118Z,2.00
2019-01-10T03:42:46.226Z,2.00
2019-01-10T03:45:16.437Z,2.00
2019-01-10T03:47:45.621Z,2.00
2019-01-10T03:50:15.190Z,2.00
2019-01-10T03:52:44.348Z,2.00
2019-01-10T03:55:13.433Z,2.00
2019-01-10T03:57:42.357Z,2.00
2019-01-10T04:00:20.010Z,2.00
2019-01-10T04:02:49.078Z,2.00
2019-01-10T04:05:18.046Z,2.00
2019-01-10T04:07:47.125Z,2.00
2019-01-10T04:10:16.326Z,2.00
2019-01-10T04:12:45.457Z,2.10
2019-01-10T04:15:14.721Z,2.00
2019-01-10T04:17:43.624Z,2.00
2019-01-10T04:20:13.837Z,2.00
2019-01-10T04:22:43.317Z,2.10
2019-01-10T04:25:12.446Z,2.10
2019-01-10T04:27:41.275Z,2.10
2019-01-10T04:30:16.113Z,2.00
2019-01-10T04:32:44.886Z,2.00
2019-01-10T04:35:14.005Z,2.10
2019-01-10T04:37:42.987Z,2.00
2019-01-10T04:40:14.479Z,2.00
2019-01-10T04:42:43.349Z,1.90
2019-01-10T04:45:12.590Z,1.90
2019-01-10T04:47:41.591Z,1.90
2019-01-10T04:50:10.708Z,2.00
2019-01-10T04:52:39.826Z,2.00
2019-01-10T04:55:09.307Z,2.00
2019-01-10T04:57:38.289Z,2.00
2019-01-10T05:00:11.795Z,1.90
2019-01-10T05:02:40.657Z,1.90
2019-01-10T05:05:09.743Z,2.00
2019-01-10T05:07:38.575Z,1.90
2019-01-10T05:10:08.811Z,1.90
2019-01-10T05:12:37.717Z,1.90
2019-01-10T05:15:10.065Z,1.90
2019-01-10T05:17:38.888Z,2.00
2019-01-10T05:20:10.521Z,1.90
2019-01-10T05:22:39.643Z,1.90
2019-01-10T05:25:08.765Z,1.90
2019-01-10T05:27:37.657Z,1.90
2019-01-10T05:30:09.749Z,2.00
2019-01-10T05:32:38.587Z,1.90
2019-01-10T05:35:07.473Z,2.00
2019-01-10T05:37:36.578Z,2.00
2019-01-10T05:40:06.189Z,2.00
2019-01-10T05:42:36.027Z,2.00
2019-01-10T05:45:05.972Z,2.00
2019-01-10T05:47:34.761Z,1.90
2019-01-10T05:50:04.233Z,2.00
2019-01-10T05:52:33.188Z,1.90
2019-01-10T05:55:01.993Z,2.00
2019-01-10T05:57:30.884Z,2.00
2019-01-10T05:59:59.884Z,2.00
2019-01-10T06:02:28.761Z,1.90
2019-01-10T06:04:57.714Z,2.00
2019-01-10T06:07:26.804Z,2.00
2019-01-10T06:09:55.613Z,2.00
2019-01-10T06:12:24.586Z,2.00
2019-01-10T06:14:53.489Z,2.00
2019-01-10T06:17:22.334Z,2.00
2019-01-10T06:19:51.185Z,2.00
2019-01-10T06:22:20.286Z,2.00
2019-01-10T06:24:49.384Z,2.00
2019-01-10T06:27:18.186Z,2.00
2019-01-10T06:29:47.073Z,2.00
2019-01-10T06:32:16.210Z,1.90
2019-01-10T06:34:45.116Z,2.00
2019-01-10T06:37:14.091Z,2.00
2019-01-10T06:39:43.049Z,2.00
2019-01-10T06:42:11.931Z,2.00
2019-01-10T06:44:44.677Z,2.00
2019-01-10T06:47:11.480Z,2.00
2019-01-10T06:49:40.676Z,2.00
2019-01-10T06:52:12.836Z,2.10
2019-01-10T06:54:51.741Z,2.10
2019-01-10T06:57:15.617Z,2.10
2019-01-10T06:59:44.420Z,2.10
2019-01-10T07:02:13.233Z,2.10
2019-01-10T07:04:42.196Z,2.10
2019-01-10T07:07:11.028Z,2.10
2019-01-10T07:09:39.895Z,2.10
2019-01-10T07:12:08.986Z,2.10
2019-01-10T07:14:37.824Z,2.10
2019-01-10T07:17:06.662Z,2.10
2019-01-10T07:19:45.007Z,2.10
2019-01-10T07:22:15.093Z,2.10
2019-01-10T07:24:54.750Z,2.10
2019-01-10T07:27:23.970Z,2.10
2019-01-10T07:29:56.926Z,2.10
2019-01-10T07:32:25.918Z,2.10
2019-01-10T07:35:01.978Z,2.10
2019-01-10T07:37:30.940Z,2.10
2019-01-10T07:39:59.793Z,2.10
2019-01-10T07:42:33.827Z,2.20
2019-01-10T07:45:07.732Z,2.20
2019-01-10T07:47:49.719Z,2.20
2019-01-10T07:50:37.325Z,2.20
2019-01-10T07:53:07.888Z,2.20
2019-01-10T07:55:37.041Z,2.20
2019-01-10T07:58:06.092Z,2.20
2019-01-10T08:00:35.152Z,2.20
2019-01-10T08:03:04.245Z,2.20
2019-01-10T08:05:33.215Z,2.20
2019-01-10T08:08:02.122Z,2.20
2019-01-10T08:10:31.027Z,2.30
2019-01-10T08:12:59.906Z,2.20
2019-01-10T08:15:29.193Z,2.20
2019-01-10T08:17:58.159Z,2.30
2019-01-10T08:20:26.975Z,2.30
2019-01-10T08:22:56.154Z,2.30
2019-01-10T08:25:24.903Z,2.30
2019-01-10T08:27:53.787Z,2.30
2019-01-10T08:30:24.481Z,2.30
2019-01-10T08:32:53.585Z,2.30
2019-01-10T08:35:24.933Z,2.40
2019-01-10T08:37:53.744Z,2.40
2019-01-10T08:40:22.868Z,2.40
2019-01-10T08:42:52.045Z,2.50
2019-01-10T08:45:22.117Z,2.50
2019-01-10T08:47:51.253Z,2.50
2019-01-10T08:50:27.037Z,2.50
2019-01-10T08:52:56.015Z,2.50
2019-01-10T08:55:24.971Z,2.60
2019-01-10T08:57:54.102Z,2.60
2019-01-10T09:00:24.013Z,2.60
2019-01-10T09:02:53.231Z,2.50
2019-01-10T09:05:22.381Z,2.60
2019-01-10T09:07:51.384Z,2.60
2019-01-10T09:10:31.474Z,2.60
2019-01-10T09:13:00.341Z,2.70
2019-01-10T09:15:34.236Z,2.70
2019-01-10T09:18:00.049Z,2.70
2019-01-10T09:20:29.234Z,2.70
2019-01-10T09:22:58.123Z,2.80
2019-01-10T09:25:27.105Z,2.80
2019-01-10T09:27:55.990Z,2.80
2019-01-10T09:30:24.999Z,2.90
2019-01-10T09:32:54.071Z,2.90
2019-01-10T09:35:22.914Z,2.90
2019-01-10T09:37:52.054Z,2.90
2019-01-10T09:40:22.282Z,3.00
2019-01-10T09:42:51.205Z,3.00
2019-01-10T09:45:21.984Z,3.00
2019-01-10T09:47:51.061Z,3.00
2019-01-10T09:50:20.436Z,3.10
2019-01-10T09:52:49.645Z,3.10
2019-01-10T09:55:18.957Z,3.10
2019-01-10T09:57:47.921Z,3.20
2019-01-10T10:00:19.547Z,3.20
2019-01-10T10:02:48.472Z,3.20
2019-01-10T10:05:17.365Z,3.30
2019-01-10T10:07:46.302Z,3.30
2019-01-10T10:10:17.189Z,3.40
2019-01-10T10:12:46.144Z,3.50
2019-01-10T10:15:15.589Z,3.50
2019-01-10T10:17:44.702Z,3.50
2019-01-10T10:20:15.863Z,3.50
2019-01-10T10:22:44.747Z,3.50
2019-01-10T10:25:13.840Z,3.60
2019-01-10T10:27:42.747Z,3.60
2019-01-10T10:30:16.908Z,3.60
2019-01-10T10:32:45.962Z,3.70
2019-01-10T10:35:15.259Z,3.70
2019-01-10T10:37:44.377Z,3.70
2019-01-10T10:40:15.583Z,3.80
2019-01-10T10:42:44.899Z,3.80
2019-01-10T10:45:15.499Z,3.90
2019-01-10T10:47:44.482Z,4.00
2019-01-10T10:50:22.235Z,4.00
2019-01-10T10:52:51.342Z,4.00
2019-01-10T10:55:20.377Z,4.10
2019-01-10T10:57:49.737Z,4.10
2019-01-10T11:00:23.727Z,4.20
2019-01-10T11:02:52.874Z,4.20
2019-01-10T11:05:21.749Z,4.30
2019-01-10T11:07:50.722Z,4.30
2019-01-10T11:10:20.189Z,4.30
2019-01-10T11:12:55.635Z,4.30
2019-01-10T11:15:24.960Z,4.40
2019-01-10T11:17:53.894Z,4.60
2019-01-10T11:20:23.737Z,4.50
2019-01-10T11:22:53.294Z,4.60
2019-01-10T11:25:24.566Z,4.60
2019-01-10T11:27:53.519Z,4.70
2019-01-10T11:30:22.701Z,4.90
2019-01-10T11:32:53.738Z,4.90
2019-01-10T11:35:22.298Z,5.00
2019-01-10T11:37:51.390Z,5.00
2019-01-10T11:40:21.573Z,5.10
2019-01-10T11:42:50.590Z,5.20
2019-01-10T11:45:21.809Z,5.20
2019-01-10T11:47:51.013Z,5.20
2019-01-10T11:50:19.893Z,5.30
2019-01-10T11:52:49.001Z,5.30
2019-01-10T11:55:17.905Z,5.40
2019-01-10T11:57:47.064Z,5.40
2019-01-10T12:00:25.140Z,5.40
2019-01-10T12:02:54.219Z,5.50
2019-01-10T12:05:23.207Z,5.50
2019-01-10T12:07:52.593Z,5.50
2019-01-10T12:10:21.839Z,5.40
2019-01-10T12:12:50.701Z,5.50
2019-01-10T12:15:19.790Z,5.50
2019-01-10T12:17:48.677Z,5.50
2019-01-10T12:20:17.633Z,5.60
2019-01-10T12:22:46.744Z,5.60
2019-01-10T12:25:16.142Z,5.60
2019-01-10T12:27:45.244Z,5.60
2019-01-10T12:30:17.388Z,5.70
2019-01-10T12:32:46.275Z,5.70
2019-01-10T12:35:15.344Z,5.80
2019-01-10T12:37:44.547Z,5.80
2019-01-10T12:40:13.691Z,5.80
2019-01-10T12:42:42.701Z,5.80
2019-01-10T12:45:12.593Z,5.90
2019-01-10T12:47:41.535Z,6.00
2019-01-10T12:50:31.585Z,6.00
2019-01-10T12:53:02.669Z,6.00
2019-01-10T12:55:31.496Z,6.10
2019-01-10T12:58:00.477Z,6.00
2019-01-10T13:00:29.410Z,6.10
2019-01-10T13:02:58.352Z,6.00
2019-01-10T13:05:27.637Z,6.00
2019-01-10T13:08:03.367Z,6.00
2019-01-10T13:10:26.999Z,5.90
2019-01-10T13:12:56.082Z,6.00
2019-01-10T13:15:26.747Z,5.90
2019-01-10T13:17:55.842Z,5.90
2019-01-10T13:20:24.902Z,5.90
2019-01-10T13:22:53.941Z,5.90
2019-01-10T13:25:23.266Z,5.90
2019-01-10T13:27:53.086Z,5.80
2019-01-10T13:30:24.011Z,5.80
2019-01-10T13:32:53.391Z,5.80
2019-01-10T13:35:22.557Z,5.80
2019-01-10T13:37:51.751Z,5.80
2019-01-10T13:40:21.547Z,5.80
2019-01-10T13:42:50.685Z,5.80
2019-01-10T13:45:19.653Z,5.70
2019-01-10T13:47:49.691Z,5.70
2019-01-10T13:50:29.812Z,5.70
2019-01-10T13:52:58.939Z,5.70
2019-01-10T13:55:27.856Z,5.70
2019-01-10T13:57:56.973Z,5.70
2019-01-10T14:00:35.447Z,5.60
2019-01-10T14:03:01.735Z,5.60
2019-01-10T14:05:30.760Z,5.60
2019-01-10T14:07:59.810Z,5.60
2019-01-10T14:10:28.908Z,5.60
2019-01-10T14:12:57.787Z,5.60
2019-01-10T14:15:32.378Z,5.60
2019-01-10T14:18:01.389Z,5.60
2019-01-10T14:20:30.481Z,5.60
2019-01-10T14:22:59.784Z,5.60
2019-01-10T14:25:28.744Z,5.60
2019-01-10T14:27:59.631Z,5.50
2019-01-10T14:30:31.697Z,5.50
2019-01-10T14:33:00.664Z,5.50
2019-01-10T14:35:29.627Z,5.50
2019-01-10T14:37:58.651Z,5.40
2019-01-10T14:40:27.673Z,5.40
2019-01-10T14:42:56.565Z,5.40
2019-01-10T14:45:25.545Z,5.40
2019-01-10T14:47:54.431Z,5.30
2019-01-10T14:50:23.377Z,5.30
2019-01-10T14:52:52.429Z,5.30
2019-01-10T14:55:21.381Z,5.30
2019-01-10T14:57:50.484Z,5.30
2019-01-10T15:00:21.577Z,5.30
2019-01-10T15:02:50.948Z,5.30
2019-01-10T15:05:20.554Z,5.30
2019-01-10T15:07:49.862Z,5.30
2019-01-10T15:10:18.762Z,5.20
2019-01-10T15:12:48.660Z,5.20
2019-01-10T15:15:19.507Z,5.20
2019-01-10T15:17:48.507Z,5.10
2019-01-10T15:20:20.717Z,5.10
2019-01-10T15:22:49.813Z,5.10
2019-01-10T15:25:18.815Z,5.00
2019-01-10T15:27:47.980Z,5.00
2019-01-10T15:30:19.135Z,5.00
2019-01-10T15:32:48.063Z,5.00
2019-01-10T15:35:17.121Z,4.90
2019-01-10T15:37:46.115Z,4.90
2019-01-10T15:40:35.469Z,4.90
2019-01-10T15:43:06.254Z,4.90
2019-01-10T15:45:35.416Z,4.90
2019-01-10T15:48:04.916Z,4.90
2019-01-10T15:50:33.784Z,4.90
2019-01-10T15:53:02.758Z,4.90
2019-01-10T15:55:32.011Z,4.80
2019-01-10T15:58:00.905Z,4.80
2019-01-10T16:00:33.012Z,4.80
2019-01-10T16:03:01.989Z,4.80
2019-01-10T16:05:30.808Z,4.80
2019-01-10T16:07:59.826Z,4.80
2019-01-10T16:10:30.207Z,4.70
2019-01-10T16:12:59.116Z,4.70
2019-01-10T16:15:28.128Z,4.70
2019-01-10T16:17:57.417Z,4.70
2019-01-10T16:20:26.459Z,4.70
2019-01-10T16:22:55.560Z,4.70
2019-01-10T16:25:24.543Z,4.60
2019-01-10T16:27:53.431Z,4.60
2019-01-10T16:30:24.885Z,4.60
2019-01-10T16:32:53.813Z,4.60
2019-01-10T16:35:22.957Z,4.60
2019-01-10T16:37:53.210Z,4.60
2019-01-10T16:40:23.262Z,4.60
2019-01-10T16:42:52.451Z,4.60
2019-01-10T16:45:25.926Z,4.60
2019-01-10T16:47:54.803Z,4.60
2019-01-10T16:50:23.798Z,4.60
2019-01-10T16:52:53.138Z,4.50
2019-01-10T16:55:21.952Z,4.50
2019-01-10T16:57:50.921Z,4.50
2019-01-10T17:00:31.124Z,4.50
2019-01-10T17:03:00.163Z,4.50
2019-01-10T17:05:29.364Z,4.50
2019-01-10T17:07:58.492Z,4.50
2019-01-10T17:10:27.452Z,4.50
2019-01-10T17:12:56.394Z,4.50
2019-01-10T17:15:26.195Z,4.50
2019-01-10T17:17:55.123Z,4.50
2019-01-10T17:20:25.412Z,4.50
2019-01-10T17:22:54.764Z,4.40
2019-01-10T17:25:23.845Z,4.40
2019-01-10T17:27:52.811Z,4.40
2019-01-10T17:30:39.833Z,4.40
2019-01-10T17:33:08.721Z,4.40
2019-01-10T17:35:37.733Z,4.40
2019-01-10T17:38:07.066Z,4.40
2019-01-10T17:40:36.149Z,4.40
2019-01-10T17:43:06.671Z,4.40
2019-01-10T17:45:36.888Z,4.40
2019-01-10T17:48:08.444Z,4.30
2019-01-10T17:50:37.380Z,4.30
2019-01-10T17:53:06.787Z,4.30
2019-01-10T17:55:35.672Z,4.30
2019-01-10T17:58:05.060Z,4.30
2019-01-10T18:00:34.156Z,4.20
2019-01-10T18:03:02.955Z,4.20
2019-01-10T18:05:31.832Z,4.20
2019-01-10T18:08:01.077Z,4.20
2019-01-10T18:10:29.889Z,4.20
2019-01-10T18:12:58.836Z,4.20
2019-01-10T18:15:28.017Z,4.20
2019-01-10T18:17:56.919Z,4.20
2019-01-10T18:20:37.794Z,4.20
2019-01-10T18:23:07.073Z,4.20
2019-01-10T18:25:36.126Z,4.20
2019-01-10T18:28:05.767Z,4.10
2019-01-10T18:30:34.657Z,4.10
2019-01-10T18:33:03.746Z,4.10
2019-01-10T18:35:32.928Z,4.10
2019-01-10T18:38:02.037Z,4.10
2019-01-10T18:40:30.893Z,4.10
2019-01-10T18:42:59.969Z,4.10
2019-01-10T18:45:31.121Z,4.10
2019-01-10T18:48:03.249Z,4.10
2019-01-10T18:50:32.161Z,4.10
2019-01-10T18:53:01.114Z,4.10
2019-01-10T18:55:30.247Z,4.10
2019-01-10T18:57:59.127Z,4.10
2019-01-10T19:00:29.471Z,4.10
2019-01-10T19:02:59.719Z,4.10
2019-01-10T19:05:29.752Z,4.10
2019-01-10T19:07:58.699Z,4.10
2019-01-10T19:10:27.803Z,4.10
2019-01-10T19:12:56.690Z,4.10
2019-01-10T19:15:25.668Z,4.10
2019-01-10T19:17:54.775Z,4.00
2019-01-10T19:20:25.858Z,4.00
2019-01-10T19:22:55.667Z,4.00
2019-01-10T19:25:24.649Z,4.00
2019-01-10T19:27:53.541Z,4.00
2019-01-10T19:30:25.088Z,4.00
2019-01-10T19:32:54.144Z,4.00
2019-01-10T19:35:23.384Z,4.00
2019-01-10T19:37:52.517Z,4.00
2019-01-10T19:40:21.744Z,4.00
2019-01-10T19:42:50.615Z,4.00
2019-01-10T19:45:20.097Z,4.00
2019-01-10T19:47:49.415Z,4.00
2019-01-10T19:50:20.317Z,4.00
2019-01-10T19:52:49.342Z,3.90
2019-01-10T19:55:18.802Z,4.00
2019-01-10T19:57:47.734Z,4.00
2019-01-10T20:00:28.945Z,4.00
2019-01-10T20:02:57.933Z,4.00
2019-01-10T20:05:27.468Z,4.00
2019-01-10T20:07:56.561Z,4.00
2019-01-10T20:10:25.521Z,4.00
2019-01-10T20:12:54.504Z,4.00
2019-01-10T20:15:23.481Z,4.00
2019-01-10T20:17:52.408Z,4.00
2019-01-10T20:20:27.551Z,4.00
2019-01-10T20:22:57.819Z,4.00
2019-01-10T20:25:26.864Z,4.00
2019-01-10T20:27:56.079Z,4.00
2019-01-10T20:30:25.041Z,4.00
2019-01-10T20:32:53.825Z,4.10
2019-01-10T20:35:22.806Z,4.00
2019-01-10T20:37:51.589Z,4.10
2019-01-10T20:40:20.663Z,4.10
2019-01-10T20:42:49.849Z,4.10
2019-01-10T20:45:18.841Z,4.00
2019-01-10T20:47:47.729Z,4.00
2019-01-10T20:50:16.779Z,4.10
2019-01-10T20:52:45.882Z,4.10
2019-01-10T20:55:14.864Z,4.10
2019-01-10T20:57:43.987Z,4.00
2019-01-10T21:00:15.539Z,4.10
2019-01-10T21:02:44.467Z,4.00
2019-01-10T21:05:13.665Z,4.10
2019-01-10T21:07:44.315Z,4.10
2019-01-10T21:10:13.489Z,4.10
2019-01-10T21:12:42.552Z,4.10
2019-01-10T21:15:14.461Z,4.00
2019-01-10T21:17:43.589Z,4.00
2019-01-10T21:20:12.888Z,4.00
2019-01-10T21:22:41.889Z,4.10
2019-01-10T21:25:11.506Z,4.00
2019-01-10T21:27:40.783Z,4.00
2019-01-10T21:30:12.579Z,4.00
2019-01-10T21:32:41.428Z,4.00
2019-01-10T21:35:11.060Z,4.00
2019-01-10T21:37:40.311Z,4.00
2019-01-10T21:40:11.679Z,4.00
2019-01-10T21:42:40.629Z,4.00
2019-01-10T21:45:12.455Z,4.00
2019-01-10T21:47:41.409Z,4.00
2019-01-10T21:50:12.440Z,4.00
2019-01-10T21:52:41.582Z,4.00
2019-01-10T21:55:10.950Z,4.00
2019-01-10T21:57:39.925Z,4.00
2019-01-10T22:00:13.525Z,4.00
2019-01-10T22:02:42.639Z,4.00
2019-01-10T22:05:12.957Z,4.00
2019-01-10T22:07:42.076Z,4.00
2019-01-10T22:10:11.204Z,4.00
2019-01-10T22:12:40.226Z,4.00
2019-01-10T22:15:11.224Z,4.00
2019-01-10T22:17:40.175Z,4.00
2019-01-10T22:20:10.945Z,4.00
2019-01-10T22:22:39.979Z,4.00
2019-01-10T22:25:09.193Z,4.00
2019-01-10T22:27:38.033Z,4.00
2019-01-10T22:30:09.820Z,4.00
2019-01-10T22:32:38.856Z,4.00
2019-01-10T22:35:09.301Z,4.00
2019-01-10T22:37:38.365Z,4.00
2019-01-10T22:40:09.384Z,4.00
2019-01-10T22:42:38.240Z,4.10
2019-01-10T22:45:07.739Z,4.10
2019-01-10T22:47:36.693Z,4.10
2019-01-10T22:50:06.849Z,4.10
2019-01-10T22:52:35.948Z,4.10
2019-01-10T22:55:05.935Z,4.10
2019-01-10T22:57:34.813Z,4.10
2019-01-10T23:00:06.604Z,4.10
2019-01-10T23:02:35.687Z,4.10
2019-01-10T23:05:04.809Z,4.10
2019-01-10T23:07:33.784Z,4.10
2019-01-10T23:10:04.444Z,4.10
2019-01-10T23:12:34.973Z,4.10
2019-01-10T23:15:32.783Z,4.10
2019-01-10T23:18:02.087Z,4.20
2019-01-10T23:20:30.956Z,4.20
2019-01-10T23:23:02.092Z,4.20
2019-01-10T23:25:31.149Z,4.20
2019-01-10T23:28:00.038Z,4.20
2019-01-10T23:30:49.645Z,4.20
2019-01-10T23:33:19.417Z,4.20
2019-01-10T23:35:48.937Z,4.20
2019-01-10T23:38:22.097Z,4.20
2019-01-10T23:40:51.103Z,4.20
2019-01-10T23:43:20.056Z,4.20
2019-01-10T23:45:49.321Z,4.20
2019-01-10T23:48:18.324Z,4.20
2019-01-10T23:50:47.225Z,4.30
2019-01-10T23:53:16.311Z,4.30
2019-01-10T23:55:45.264Z,4.30
2019-01-10T23:58:14.166Z,4.30
